Terminal Aerodrome Forecast
Issued by NWS Brownsville, TX

Home | Current Version | Previous Version | Text Only | Print | Product List | Glossary On
Versions: 1 2 3 4 5 6 7 8 9 10 11 12 13 14 15 16 17 18 19 20
568
FTUS44 KBRO 010539
TAFHRL
TAF
KHRL 010539Z 0106/0206 09005KT 4SM BR BKN006 OVC015
     FM011500 11009KT 4SM HZ BKN020
     FM011800 11012KT 6SM HZ SCT030
     FM020300 11008KT 5SM BR BKN025=

USA.gov is the U.S. government's official web portal to all federal, state and local government web resources and services.